Time;durP1;ratioP1;P1;durP2;ratioP2;P2;SDS_P1;SDS_P2;PMS_P1;PMS_P2;Temp;Humidity;BMP_temperature;BMP_pressure;BME280_temperature;BME280_humidity;BME280_pressure;Samples;Min_cycle;Max_cycle;Signal;HPM_P1;HPM_P2
2023/06/17 00:00:07;;;;;;;0.00;0.00;;;;;;;;;;7372297;19;20151;-69
2023/06/17 00:02:36;;;;;;;0.00;0.00;;;;;;;;;;7374580;19;20125;-68
2023/06/17 00:05:06;;;;;;;0.00;0.00;;;;;;;;;;7372294;19;20144;-69
2023/06/17 00:07:39;;;;;;;0.00;0.00;;;;;;;;;;7375327;19;20253;-69
2023/06/17 00:10:08;;;;;;;0.00;0.00;;;;;;;;;;7372796;19;20231;-69
2023/06/17 00:12:39;;;;;;;0.00;0.00;;;;;;;;;;7372236;19;20147;-69
2023/06/17 00:15:09;;;;;;;0.00;0.00;;;;;;;;;;7373937;19;20136;-69
2023/06/17 00:17:38;;;;;;;0.00;0.00;;;;;;;;;;7373505;19;20156;-69
2023/06/17 00:20:11;;;;;;;0.00;0.00;;;;;;;;;;7362293;19;20136;-69
2023/06/17 00:22:44;;;;;;;0.00;0.00;;;;;;;;;;7370714;19;20220;-69
2023/06/17 00:25:14;;;;;;;0.00;0.00;;;;;;;;;;7372879;19;20145;-68
2023/06/17 00:27:43;;;;;;;0.00;0.00;;;;;;;;;;7371907;19;20149;-69
2023/06/17 00:30:13;;;;;;;0.00;0.00;;;;;;;;;;7369419;19;20184;-68
2023/06/17 00:32:42;;;;;;;0.00;0.00;;;;;;;;;;7367476;19;20152;-69
2023/06/17 00:35:11;;;;;;;0.00;0.00;;;;;;;;;;7370807;19;20172;-68
2023/06/17 00:37:43;;;;;;;0.00;0.00;;;;;;;;;;7372087;19;20163;-68
2023/06/17 00:40:14;;;;;;;0.00;0.00;;;;;;;;;;7372381;19;20224;-69
2023/06/17 00:42:43;;;;;;;0.00;0.00;;;;;;;;;;7369391;19;20157;-69
2023/06/17 00:45:12;;;;;;;0.00;0.00;;;;;;;;;;7371229;19;20204;-68
2023/06/17 00:47:41;;;;;;;0.00;0.00;;;;;;;;;;7371185;19;20529;-69
2023/06/17 00:50:12;;;;;;;0.00;0.00;;;;;;;;;;7371103;19;20145;-69
2023/06/17 00:52:44;;;;;;;0.00;0.00;;;;;;;;;;7369492;19;20148;-69
2023/06/17 00:55:14;;;;;;;0.00;0.00;;;;;;;;;;7371253;19;20216;-68
2023/06/17 00:57:45;;;;;;;0.00;0.00;;;;;;;;;;7369643;19;20159;-69
2023/06/17 01:00:15;;;;;;;0.00;0.00;;;;;;;;;;7370965;19;20184;-68
2023/06/17 01:02:46;;;;;;;0.00;0.00;;;;;;;;;;7370873;19;20140;-69
2023/06/17 01:05:17;;;;;;;0.00;0.00;;;;;;;;;;7370667;19;20522;-69
2023/06/17 01:07:56;;;;;;;0.00;0.00;;;;;;;;;;7373641;19;20133;-69
2023/06/17 01:10:27;;;;;;;0.00;0.00;;;;;;;;;;7374929;19;20176;-69
2023/06/17 01:12:57;;;;;;;0.00;0.00;;;;;;;;;;7375907;19;20143;-69
2023/06/17 01:15:27;;;;;;;0.00;0.00;;;;;;;;;;7376826;19;20148;-68
2023/06/17 01:17:56;;;;;;;0.07;0.07;;;;;;;;;;7377631;19;20169;-67
2023/06/17 01:20:26;;;;;;;0.00;0.00;;;;;;;;;;7378209;19;20157;-69
2023/06/17 01:22:58;;;;;;;0.00;0.00;;;;;;;;;;7378053;19;20176;-69
2023/06/17 01:25:31;;;;;;;0.00;0.00;;;;;;;;;;7375329;19;20543;-68
2023/06/17 01:28:04;;;;;;;0.00;0.00;;;;;;;;;;7378555;19;20140;-68
2023/06/17 01:30:34;;;;;;;0.00;0.00;;;;;;;;;;7376059;19;20596;-67
2023/06/17 01:33:03;;;;;;;0.00;0.00;;;;;;;;;;7373263;19;20238;-68
2023/06/17 01:35:34;;;;;;;0.00;0.00;;;;;;;;;;7375948;19;20159;-67
2023/06/17 01:38:08;;;;;;;0.00;0.00;;;;;;;;;;7378887;19;20137;-68
2023/06/17 01:40:41;;;;;;;0.00;0.00;;;;;;;;;;7377416;19;20149;-70
2023/06/17 01:43:12;;;;;;;0.00;0.00;;;;;;;;;;7373641;19;20176;-69
2023/06/17 01:45:42;;;;;;;0.00;0.00;;;;;;;;;;7375549;19;20149;-69
2023/06/17 01:48:11;;;;;;;0.00;0.00;;;;;;;;;;7376748;19;20695;-68
2023/06/17 01:50:40;;;;;;;0.00;0.00;;;;;;;;;;7373263;19;20674;-69
2023/06/17 01:53:09;;;;;;;0.00;0.00;;;;;;;;;;7376083;19;20153;-68
2023/06/17 01:55:41;;;;;;;0.00;0.00;;;;;;;;;;7376381;19;20652;-69
2023/06/17 01:58:10;;;;;;;0.00;0.00;;;;;;;;;;7376475;19;20167;-68
2023/06/17 02:00:39;;;;;;;0.03;0.03;;;;;;;;;;7373950;19;20210;-68
2023/06/17 02:03:08;;;;;;;0.00;0.00;;;;;;;;;;7374889;19;20177;-68
2023/06/17 02:05:37;;;;;;;0.00;0.00;;;;;;;;;;7374637;19;20153;-69
2023/06/17 02:08:07;;;;;;;0.00;0.00;;;;;;;;;;7374630;19;20148;-69
2023/06/17 02:10:36;;;;;;;0.00;0.00;;;;;;;;;;7374371;19;20200;-68
2023/06/17 02:13:08;;;;;;;0.00;0.00;;;;;;;;;;7375008;19;20156;-69
2023/06/17 02:15:38;;;;;;;0.00;0.00;;;;;;;;;;7375353;19;20155;-69
2023/06/17 02:18:08;;;;;;;0.00;0.00;;;;;;;;;;7375479;19;20145;-71
2023/06/17 02:20:37;;;;;;;0.00;0.00;;;;;;;;;;7367596;19;20180;-66
2023/06/17 02:23:06;;;;;;;0.00;0.00;;;;;;;;;;7374580;19;20151;-68
2023/06/17 02:25:36;;;;;;;0.00;0.00;;;;;;;;;;7373667;19;20151;-68
2023/06/17 02:28:08;;;;;;;0.00;0.00;;;;;;;;;;7372732;19;20155;-68
2023/06/17 02:30:37;;;;;;;0.00;0.00;;;;;;;;;;7373779;19;20172;-68
2023/06/17 02:33:07;;;;;;;0.00;0.00;;;;;;;;;;7373635;19;20164;-68
2023/06/17 02:35:35;;;;;;;0.00;0.00;;;;;;;;;;7373363;19;20153;-68
2023/06/17 02:38:05;;;;;;;0.00;0.00;;;;;;;;;;7370917;19;20164;-68
2023/06/17 02:40:34;;;;;;;0.00;0.00;;;;;;;;;;7373668;19;20188;-68
2023/06/17 02:43:03;;;;;;;0.00;0.00;;;;;;;;;;7371997;19;20156;-68
2023/06/17 02:45:34;;;;;;;0.00;0.00;;;;;;;;;;7375073;19;20133;-69
2023/06/17 02:48:04;;;;;;;0.03;0.03;;;;;;;;;;7371394;19;20628;-68
2023/06/17 02:50:33;;;;;;;0.00;0.00;;;;;;;;;;7373768;19;20184;-69
2023/06/17 02:53:04;;;;;;;0.00;0.00;;;;;;;;;;7372579;19;20156;-68
2023/06/17 02:55:33;;;;;;;0.00;0.00;;;;;;;;;;7375242;19;20177;-69
2023/06/17 02:58:09;;;;;;;0.00;0.00;;;;;;;;;;7373369;19;20191;-69
2023/06/17 03:00:46;;;;;;;0.00;0.00;;;;;;;;;;7367690;19;20199;-68
2023/06/17 03:03:15;;;;;;;0.00;0.00;;;;;;;;;;7373027;19;20149;-69
2023/06/17 03:05:44;;;;;;;0.00;0.00;;;;;;;;;;7373026;19;20165;-68
2023/06/17 03:08:15;;;;;;;0.00;0.00;;;;;;;;;;7374051;19;20164;-69
2023/06/17 03:10:44;;;;;;;0.00;0.00;;;;;;;;;;7371347;19;20181;-69
2023/06/17 03:13:16;;;;;;;0.00;0.00;;;;;;;;;;7373006;19;20156;-69
2023/06/17 03:15:51;;;;;;;0.00;0.00;;;;;;;;;;7372411;19;20167;-69
2023/06/17 03:18:20;;;;;;;0.00;0.00;;;;;;;;;;7372697;19;20156;-68
2023/06/17 03:20:49;;;;;;;0.00;0.00;;;;;;;;;;7371802;19;20205;-69
2023/06/17 03:23:20;;;;;;;0.00;0.00;;;;;;;;;;7372506;19;20159;-69
2023/06/17 03:25:51;;;;;;;0.00;0.00;;;;;;;;;;7372372;19;20149;-69
2023/06/17 03:28:21;;;;;;;0.00;0.00;;;;;;;;;;7373629;19;20157;-70
2023/06/17 03:30:53;;;;;;;0.00;0.00;;;;;;;;;;7372165;19;20287;-69
2023/06/17 03:33:22;;;;;;;0.00;0.00;;;;;;;;;;7368469;19;20169;-69
2023/06/17 03:35:51;;;;;;;0.00;0.00;;;;;;;;;;7371636;19;20275;-69
2023/06/17 03:38:20;;;;;;;0.10;0.10;;;;;;;;;;7372534;19;20163;-68
2023/06/17 03:40:50;;;;;;;0.00;0.00;;;;;;;;;;7369209;19;20196;-69
2023/06/17 03:43:19;;;;;;;0.00;0.00;;;;;;;;;;7371319;19;20152;-68
2023/06/17 03:45:48;;;;;;;0.00;0.00;;;;;;;;;;7371189;19;20145;-68
2023/06/17 03:48:20;;;;;;;0.00;0.00;;;;;;;;;;7373744;19;20140;-69
2023/06/17 03:50:49;;;;;;;0.00;0.00;;;;;;;;;;7371403;19;20152;-69
2023/06/17 03:53:18;;;;;;;0.00;0.00;;;;;;;;;;7371135;19;20650;-68
2023/06/17 03:55:48;;;;;;;0.00;0.00;;;;;;;;;;7371270;19;20153;-68
2023/06/17 03:58:17;;;;;;;0.00;0.00;;;;;;;;;;7371562;19;20156;-68
2023/06/17 04:00:47;;;;;;;0.00;0.00;;;;;;;;;;7370866;19;20190;-68
2023/06/17 04:03:19;;;;;;;0.00;0.00;;;;;;;;;;7370034;19;20263;-69
2023/06/17 04:05:49;;;;;;;0.00;0.00;;;;;;;;;;7370639;19;20168;-71
2023/06/17 04:08:18;;;;;;;0.00;0.00;;;;;;;;;;7372580;19;20157;-68
2023/06/17 04:10:47;;;;;;;0.00;0.00;;;;;;;;;;7370060;19;20184;-69
2023/06/17 04:13:16;;;;;;;0.00;0.00;;;;;;;;;;7370119;19;20156;-69
2023/06/17 04:15:45;;;;;;;0.00;0.00;;;;;;;;;;7369835;19;20157;-68
2023/06/17 04:18:14;;;;;;;0.00;0.00;;;;;;;;;;7371924;19;20148;-68
2023/06/17 04:20:47;;;;;;;0.00;0.00;;;;;;;;;;7370554;19;20192;-69
2023/06/17 04:23:16;;;;;;;0.00;0.00;;;;;;;;;;7370034;19;20213;-68
2023/06/17 04:25:45;;;;;;;0.00;0.00;;;;;;;;;;7370256;19;20160;-69
2023/06/17 04:28:17;;;;;;;0.00;0.00;;;;;;;;;;7369985;19;20153;-69
2023/06/17 04:30:47;;;;;;;0.00;0.00;;;;;;;;;;7369670;19;20185;-69
2023/06/17 04:33:17;;;;;;;0.00;0.00;;;;;;;;;;7366258;19;20176;-69
2023/06/17 04:35:51;;;;;;;0.00;0.00;;;;;;;;;;7368876;19;20694;-68
2023/06/17 04:38:23;;;;;;;0.00;0.00;;;;;;;;;;7370782;19;20151;-68
2023/06/17 04:40:52;;;;;;;0.00;0.00;;;;;;;;;;7368319;19;20247;-69
2023/06/17 04:43:24;;;;;;;0.00;0.00;;;;;;;;;;7367254;19;20224;-70
2023/06/17 04:45:53;;;;;;;0.00;0.00;;;;;;;;;;7369498;19;20156;-69
2023/06/17 04:48:24;;;;;;;0.00;0.00;;;;;;;;;;7368292;19;20171;-69
2023/06/17 04:50:55;;;;;;;0.00;0.00;;;;;;;;;;7366969;19;20192;-70
2023/06/17 04:53:25;;;;;;;0.00;0.00;;;;;;;;;;7366635;19;20160;-70
2023/06/17 04:55:54;;;;;;;0.00;0.00;;;;;;;;;;7368592;19;20148;-69
2023/06/17 04:58:24;;;;;;;0.00;0.00;;;;;;;;;;7370520;19;20611;-70
2023/06/17 05:00:58;;;;;;;0.00;0.00;;;;;;;;;;7367600;19;20188;-68
2023/06/17 05:03:29;;;;;;;0.00;0.00;;;;;;;;;;7369125;19;20155;-69
2023/06/17 05:06:01;;;;;;;0.00;0.00;;;;;;;;;;7369614;19;20220;-69
2023/06/17 05:08:32;;;;;;;0.00;0.00;;;;;;;;;;7366875;19;20145;-70
2023/06/17 05:11:02;;;;;;;0.00;0.00;;;;;;;;;;7368496;19;20180;-68
2023/06/17 05:13:33;;;;;;;0.00;0.00;;;;;;;;;;7368612;19;20209;-69
2023/06/17 05:16:02;;;;;;;0.00;0.00;;;;;;;;;;7369339;19;20162;-69
2023/06/17 05:18:33;;;;;;;0.00;0.00;;;;;;;;;;7369255;19;20663;-70
2023/06/17 05:21:05;;;;;;;0.00;0.00;;;;;;;;;;7367623;19;20172;-69
2023/06/17 05:23:34;;;;;;;0.00;0.00;;;;;;;;;;7368939;19;20193;-70
2023/06/17 05:26:03;;;;;;;0.00;0.00;;;;;;;;;;7369090;19;20562;-70
2023/06/17 05:28:33;;;;;;;0.00;0.00;;;;;;;;;;7367288;19;20153;-70
2023/06/17 05:31:02;;;;;;;0.00;0.00;;;;;;;;;;7367029;19;20190;-70
2023/06/17 05:33:32;;;;;;;0.00;0.00;;;;;;;;;;7365377;19;20161;-70
2023/06/17 05:36:09;;;;;;;0.00;0.00;;;;;;;;;;7367807;19;20160;-67
2023/06/17 05:38:39;;;;;;;0.00;0.00;;;;;;;;;;7368916;19;20144;-68
2023/06/17 05:41:08;;;;;;;0.00;0.00;;;;;;;;;;7365781;19;20251;-68
2023/06/17 05:43:38;;;;;;;0.00;0.00;;;;;;;;;;7367009;19;20534;-67
2023/06/17 05:46:07;;;;;;;0.00;0.00;;;;;;;;;;7366611;19;20156;-69
2023/06/17 05:48:36;;;;;;;0.00;0.00;;;;;;;;;;7366315;19;20159;-69
2023/06/17 05:51:08;;;;;;;0.00;0.00;;;;;;;;;;7366617;19;20184;-67
2023/06/17 05:53:38;;;;;;;0.00;0.00;;;;;;;;;;7366478;19;20161;-69
2023/06/17 05:56:11;;;;;;;0.00;0.00;;;;;;;;;;7372469;19;20674;-69
2023/06/17 05:58:40;;;;;;;0.00;0.00;;;;;;;;;;7376499;19;20189;-69
2023/06/17 06:01:17;;;;;;;0.00;0.00;;;;;;;;;;7372485;19;20172;-69
2023/06/17 06:03:46;;;;;;;0.00;0.00;;;;;;;;;;7374236;19;20763;-69
2023/06/17 06:06:18;;;;;;;0.00;0.00;;;;;;;;;;7374760;19;20156;-69
2023/06/17 06:08:47;;;;;;;0.00;0.00;;;;;;;;;;7372723;19;20167;-70
2023/06/17 06:11:16;;;;;;;0.00;0.00;;;;;;;;;;7371284;19;20191;-69
2023/06/17 06:13:45;;;;;;;0.00;0.00;;;;;;;;;;7373277;19;20156;-69
2023/06/17 06:16:15;;;;;;;0.00;0.00;;;;;;;;;;7374917;19;20153;-69
2023/06/17 06:18:44;;;;;;;0.00;0.00;;;;;;;;;;7375403;19;20144;-71
2023/06/17 06:21:13;;;;;;;0.00;0.00;;;;;;;;;;7370462;19;20180;-68
2023/06/17 06:23:45;;;;;;;0.00;0.00;;;;;;;;;;7374166;19;20149;-67
2023/06/17 06:26:14;;;;;;;0.00;0.00;;;;;;;;;;7371975;19;20212;-68
2023/06/17 06:28:43;;;;;;;0.00;0.00;;;;;;;;;;7371788;19;20156;-69
2023/06/17 06:31:12;;;;;;;0.00;0.00;;;;;;;;;;7369848;19;20180;-67
2023/06/17 06:33:41;;;;;;;0.00;0.00;;;;;;;;;;7374924;19;20156;-67
2023/06/17 06:36:11;;;;;;;0.00;0.00;;;;;;;;;;7373912;19;20271;-68
2023/06/17 06:38:40;;;;;;;0.00;0.00;;;;;;;;;;7374759;19;20149;-69
2023/06/17 06:41:11;;;;;;;0.00;0.00;;;;;;;;;;7370936;19;20181;-67
2023/06/17 06:43:48;;;;;;;0.00;0.00;;;;;;;;;;7372788;19;20155;-67
2023/06/17 06:46:21;;;;;;;0.00;0.00;;;;;;;;;;7374254;19;20153;-68
2023/06/17 06:48:50;;;;;;;0.00;0.00;;;;;;;;;;7371077;19;20191;-67
2023/06/17 06:51:19;;;;;;;0.00;0.00;;;;;;;;;;7370542;19;20187;-67
2023/06/17 06:53:48;;;;;;;0.00;0.00;;;;;;;;;;7372068;19;20156;-67
2023/06/17 06:56:20;;;;;;;0.00;0.00;;;;;;;;;;7373157;19;20156;-66
2023/06/17 06:58:49;;;;;;;0.00;0.00;;;;;;;;;;7373240;19;20167;-67
2023/06/17 07:01:18;;;;;;;0.00;0.00;;;;;;;;;;7370680;19;20188;-66
2023/06/17 07:03:48;;;;;;;0.00;0.00;;;;;;;;;;7371948;19;20161;-68
2023/06/17 07:06:17;;;;;;;0.00;0.00;;;;;;;;;;7370864;19;20156;-66
2023/06/17 07:08:47;;;;;;;0.00;0.00;;;;;;;;;;7369889;19;20178;-66
2023/06/17 07:11:16;;;;;;;0.00;0.00;;;;;;;;;;7370984;19;20180;-67
2023/06/17 07:13:48;;;;;;;0.00;0.00;;;;;;;;;;7371522;19;20212;-68
2023/06/17 07:16:17;;;;;;;0.00;0.00;;;;;;;;;;7371900;19;20152;-67
2023/06/17 07:18:45;;;;;;;0.00;0.00;;;;;;;;;;7372948;19;20149;-66
2023/06/17 07:21:14;;;;;;;0.00;0.00;;;;;;;;;;7369508;19;20598;-65
2023/06/17 07:23:43;;;;;;;0.00;0.00;;;;;;;;;;7371845;19;20180;-65
2023/06/17 07:26:13;;;;;;;0.00;0.00;;;;;;;;;;7373058;19;20173;-68
2023/06/17 07:28:41;;;;;;;0.00;0.00;;;;;;;;;;7372373;19;20137;-66
2023/06/17 07:31:13;;;;;;;0.00;0.00;;;;;;;;;;7371072;19;20251;-67
2023/06/17 07:33:43;;;;;;;0.00;0.00;;;;;;;;;;7367878;19;20179;-67
2023/06/17 07:36:12;;;;;;;0.00;0.00;;;;;;;;;;7374605;19;20145;-67
2023/06/17 07:38:41;;;;;;;0.00;0.00;;;;;;;;;;7372804;19;20185;-67
2023/06/17 07:41:09;;;;;;;0.00;0.00;;;;;;;;;;7372825;19;20153;-68
2023/06/17 07:43:38;;;;;;;0.00;0.00;;;;;;;;;;7372874;19;20144;-66
2023/06/17 07:46:07;;;;;;;0.00;0.00;;;;;;;;;;7372358;19;20152;-68
2023/06/17 07:48:39;;;;;;;0.00;0.00;;;;;;;;;;7370706;19;20155;-68
2023/06/17 07:51:08;;;;;;;0.00;0.00;;;;;;;;;;7370966;19;20184;-68
2023/06/17 07:53:37;;;;;;;0.00;0.00;;;;;;;;;;7371994;19;20152;-67
2023/06/17 07:56:07;;;;;;;0.00;0.00;;;;;;;;;;7372909;19;20220;-67
2023/06/17 07:58:36;;;;;;;0.00;0.00;;;;;;;;;;7372087;19;20604;-69
2023/06/17 08:01:05;;;;;;;0.00;0.00;;;;;;;;;;7370473;19;20632;-66
2023/06/17 08:03:34;;;;;;;0.00;0.00;;;;;;;;;;7370270;19;20157;-69
2023/06/17 08:06:06;;;;;;;0.00;0.00;;;;;;;;;;7370297;19;20173;-68
2023/06/17 08:08:35;;;;;;;0.00;0.00;;;;;;;;;;7366835;19;20208;-68
2023/06/17 08:11:04;;;;;;;0.00;0.00;;;;;;;;;;7362137;19;20279;-69
2023/06/17 08:13:33;;;;;;;0.00;0.00;;;;;;;;;;7360671;19;20153;-71
2023/06/17 08:16:02;;;;;;;0.00;0.00;;;;;;;;;;7366386;19;20168;-69
2023/06/17 08:18:31;;;;;;;0.00;0.00;;;;;;;;;;7369485;19;20160;-69
2023/06/17 08:21:00;;;;;;;0.00;0.00;;;;;;;;;;7367995;19;20191;-69
2023/06/17 08:23:33;;;;;;;0.00;0.00;;;;;;;;;;7369907;19;20177;-69
2023/06/17 08:26:02;;;;;;;0.00;0.00;;;;;;;;;;7371330;19;20152;-69
2023/06/17 08:28:31;;;;;;;0.00;0.00;;;;;;;;;;7369803;19;20152;-69
2023/06/17 08:31:00;;;;;;;0.00;0.00;;;;;;;;;;7369703;19;20188;-68
2023/06/17 08:33:29;;;;;;;0.00;0.00;;;;;;;;;;7366655;19;20153;-69
2023/06/17 08:35:58;;;;;;;0.00;0.00;;;;;;;;;;7370457;19;20148;-69
2023/06/17 08:38:27;;;;;;;0.00;0.00;;;;;;;;;;7370074;19;20148;-70
2023/06/17 08:40:59;;;;;;;0.00;0.00;;;;;;;;;;7369300;19;20674;-69
2023/06/17 08:43:28;;;;;;;0.00;0.00;;;;;;;;;;7371897;19;20136;-69
2023/06/17 08:45:58;;;;;;;0.00;0.00;;;;;;;;;;7372391;19;20208;-69
2023/06/17 08:48:28;;;;;;;0.00;0.00;;;;;;;;;;7372366;19;20164;-69
2023/06/17 08:50:57;;;;;;;0.00;0.00;;;;;;;;;;7370291;19;20161;-69
2023/06/17 08:53:27;;;;;;;0.00;0.00;;;;;;;;;;7370934;19;20141;-67
2023/06/17 08:55:58;;;;;;;0.00;0.00;;;;;;;;;;7372867;19;20133;-69
2023/06/17 08:58:27;;;;;;;0.00;0.00;;;;;;;;;;7373471;19;20227;-69
2023/06/17 09:00:57;;;;;;;0.00;0.00;;;;;;;;;;7370277;19;20157;-69
2023/06/17 09:03:27;;;;;;;0.00;0.00;;;;;;;;;;7368585;19;20185;-69
2023/06/17 09:05:56;;;;;;;0.00;0.00;;;;;;;;;;7368620;19;20172;-69
2023/06/17 09:08:26;;;;;;;0.00;0.00;;;;;;;;;;7371063;19;20145;-68
2023/06/17 09:10:55;;;;;;;0.00;0.00;;;;;;;;;;7371233;19;20175;-70
2023/06/17 09:13:26;;;;;;;0.00;0.00;;;;;;;;;;7370360;19;20144;-69
2023/06/17 09:15:55;;;;;;;0.00;0.00;;;;;;;;;;7370068;19;20149;-69
2023/06/17 09:18:24;;;;;;;0.00;0.00;;;;;;;;;;7370521;19;20145;-70
2023/06/17 09:20:55;;;;;;;0.00;0.00;;;;;;;;;;7367670;19;20184;-69
2023/06/17 09:23:25;;;;;;;0.00;0.00;;;;;;;;;;7368692;19;20178;-69
2023/06/17 09:26:02;;;;;;;0.00;0.00;;;;;;;;;;7369818;19;20176;-69
2023/06/17 09:28:34;;;;;;;0.00;0.00;;;;;;;;;;7369504;19;20165;-69
2023/06/17 09:31:06;;;;;;;0.00;0.00;;;;;;;;;;7373848;19;20188;-69
2023/06/17 09:33:35;;;;;;;0.00;0.00;;;;;;;;;;7374740;19;20156;-69
2023/06/17 09:36:04;;;;;;;0.00;0.00;;;;;;;;;;7378300;19;20144;-69
2023/06/17 09:38:33;;;;;;;0.00;0.00;;;;;;;;;;7376557;19;20605;-69
2023/06/17 09:41:02;;;;;;;0.00;0.00;;;;;;;;;;7373952;19;20272;-69
2023/06/17 09:43:34;;;;;;;0.00;0.00;;;;;;;;;;7374619;19;20149;-70
2023/06/17 09:46:06;;;;;;;0.00;0.00;;;;;;;;;;7379015;19;20137;-69
2023/06/17 09:48:37;;;;;;;0.00;0.00;;;;;;;;;;7377799;19;20133;-69
2023/06/17 09:51:09;;;;;;;0.00;0.00;;;;;;;;;;7374560;19;20181;-67
2023/06/17 09:53:38;;;;;;;0.00;0.00;;;;;;;;;;7375174;19;20152;-69
2023/06/17 09:56:10;;;;;;;0.00;0.00;;;24.90;99.90;;;;;;7377593;19;20129;-70
2023/06/17 09:58:43;;;;;;;0.00;0.00;;;24.80;99.90;;;;;;7376885;19;20153;-71
2023/06/17 10:01:13;;;;;;;0.00;0.00;;;24.60;99.90;;;;;;7375537;19;20168;-69
2023/06/17 10:03:42;;;;;;;0.00;0.00;;;24.70;99.90;;;;;;7376120;19;20148;-69
2023/06/17 10:06:12;;;;;;;0.00;0.00;;;24.80;99.90;;;;;;7378044;19;20160;-69
2023/06/17 10:08:44;;;;;;;0.00;0.00;;;24.70;99.90;;;;;;7375500;19;20153;-68
2023/06/17 10:11:15;;;;;;;0.00;0.00;;;24.80;99.90;;;;;;7376971;19;20144;-69
2023/06/17 10:13:51;;;;;;;0.00;0.00;;;24.70;99.90;;;;;;7376240;19;20149;-69
2023/06/17 10:16:21;;;;;;;0.00;0.00;;;24.60;99.90;;;;;;7377881;19;20172;-69
2023/06/17 10:18:53;;;;;;;0.00;0.00;;;24.50;99.90;;;;;;7374310;19;20185;-69
2023/06/17 10:21:24;;;;;;;0.00;0.00;;;24.40;99.90;;;;;;7372180;19;20197;-69
2023/06/17 10:23:54;;;;;;;0.00;0.00;;;24.50;99.90;;;;;;7374728;19;20160;-69
2023/06/17 10:26:23;;;;;;;0.00;0.00;;;24.50;99.90;;;;;;7375872;19;20144;-69
2023/06/17 10:29:07;;;;;;;0.00;0.00;;;24.30;99.90;;;;;;7373432;19;20160;-68
2023/06/17 10:31:40;;;;;;;0.00;0.00;;;24.20;99.90;;;;;;7371938;19;20668;-68
2023/06/17 10:34:11;;;;;;;0.00;0.00;;;24.10;99.90;;;;;;7371152;19;20158;-68
2023/06/17 10:36:40;;;;;;;0.00;0.00;;;24.30;99.90;;;;;;7375057;19;20147;-69
2023/06/17 10:39:10;;;;;;;0.00;0.00;;;24.50;99.90;;;;;;7375092;19;20140;-68
2023/06/17 10:41:55;;;;;;;0.00;0.00;;;24.60;99.90;;;;;;7371649;19;20181;-69
2023/06/17 10:44:42;;;;;;;0.00;0.00;;;24.80;99.90;;;;;;7372812;19;20194;-68
2023/06/17 10:47:25;;;;;;;0.00;0.00;;;24.90;99.90;;;;;;7375688;19;20148;-68
2023/06/17 10:49:56;;;;;;;0.00;0.00;;;24.90;99.90;;;;;;7372640;19;20225;-68
2023/06/17 10:52:25;;;;;;;0.00;0.00;;;25.00;99.90;;;;;;7372756;19;20158;-68
2023/06/17 10:54:56;;;;;;;0.00;0.00;;;25.00;99.90;;;;;;7372760;19;20160;-69
2023/06/17 10:57:33;;;;;;;0.00;0.00;;;25.00;99.90;;;;;;7374600;19;20161;-69
2023/06/17 11:00:10;;;;;;;0.00;0.00;;;;;;;;;;7374669;19;20156;-69
2023/06/17 11:02:39;;;;;;;0.00;0.00;;;25.10;99.90;;;;;;7373672;19;20144;-69
2023/06/17 11:05:09;;;;;;;0.00;0.00;;;25.10;99.90;;;;;;7373651;19;20176;-68
2023/06/17 11:07:38;;;;;;;0.00;0.00;;;25.10;99.90;;;;;;7376319;19;20143;-69
2023/06/17 11:10:07;;;;;;;0.00;0.00;;;25.20;99.90;;;;;;7373864;19;20155;-71
2023/06/17 11:12:39;;;;;;;0.00;0.00;;;25.20;99.90;;;;;;7372207;19;20156;-70
2023/06/17 11:15:12;;;;;;;0.00;0.00;;;25.20;99.90;;;;;;7375147;19;20141;-69
2023/06/17 11:17:40;;;;;;;0.00;0.00;;;25.20;99.90;;;;;;7374964;19;20136;-68
2023/06/17 11:20:10;;;;;;;0.00;0.00;;;;;;;;;;7375241;19;20153;-68
2023/06/17 11:22:39;;;;;;;0.00;0.00;;;;;;;;;;7373628;19;20137;-69
2023/06/17 11:25:09;;;;;;;0.00;0.00;;;;;;;;;;7376320;19;20143;-69
2023/06/17 11:27:38;;;;;;;0.00;0.00;;;;;;;;;;7373880;19;20149;-68
2023/06/17 11:30:10;;;;;;;0.00;0.00;;;;;;;;;;7370646;19;20549;-70
2023/06/17 11:32:43;;;;;;;0.00;0.00;;;;;;;;;;7370040;19;20178;-68
2023/06/17 11:35:12;;;;;;;0.00;0.00;;;;;;;;;;7374096;19;20152;-70
2023/06/17 11:37:41;;;;;;;0.00;0.00;;;;;;;;;;7372647;19;20153;-69
2023/06/17 11:40:12;;;;;;;0.00;0.00;;;;;;;;;;7372889;19;20160;-69
2023/06/17 11:42:42;;;;;;;0.00;0.00;;;;;;;;;;7370727;19;20160;-68
2023/06/17 11:45:11;;;;;;;0.00;0.00;;;;;;;;;;7372728;19;20151;-70
2023/06/17 11:47:43;;;;;;;0.00;0.00;;;;;;;;;;7371455;19;20156;-69
2023/06/17 11:50:13;;;;;;;0.00;0.00;;;26.20;99.90;;;;;;7371113;19;20222;-69
2023/06/17 11:52:42;;;;;;;0.00;0.00;;;;;;;;;;7370270;19;20148;-68
2023/06/17 11:55:16;;;;;;;0.00;0.00;;;;;;;;;;7372593;19;20148;-70
2023/06/17 11:57:46;;;;;;;0.00;0.00;;;;;;;;;;7372187;19;20147;-69
2023/06/17 12:00:16;;;;;;;0.00;0.00;;;;;;;;;;7372363;19;20184;-69
2023/06/17 12:02:48;;;;;;;0.00;0.00;;;;;;;;;;7370929;19;20189;-69
2023/06/17 12:05:17;;;;;;;0.00;0.00;;;;;;;;;;7372289;19;20144;-68
2023/06/17 12:07:48;;;;;;;0.00;0.00;;;;;;;;;;7370882;19;20152;-70
2023/06/17 12:10:17;;;;;;;0.00;0.00;;;26.30;99.90;;;;;;7372059;19;20157;-70
2023/06/17 12:12:46;;;;;;;0.00;0.00;;;26.30;99.90;;;;;;7372692;19;20141;-69
2023/06/17 12:15:16;;;;;;;0.00;0.00;;;26.20;99.90;;;;;;7373996;19;20129;-68
2023/06/17 12:17:48;;;;;;;0.00;0.00;;;;;;;;;;7371235;19;20144;-70
2023/06/17 12:20:18;;;;;;;0.00;0.00;;;;;;;;;;7372290;19;20184;-70
2023/06/17 12:22:47;;;;;;;0.00;0.00;;;;;;;;;;7372678;19;20187;-70
2023/06/17 12:25:16;;;;;;;0.00;0.00;;;;;;;;;;7374051;19;20160;-70
2023/06/17 12:27:45;;;;;;;0.00;0.00;;;26.40;99.90;;;;;;7373794;19;20152;-69
2023/06/17 12:30:15;;;;;;;0.00;0.00;;;26.30;99.90;;;;;;7372355;19;20133;-69
2023/06/17 12:32:43;;;;;;;0.00;0.00;;;26.40;99.90;;;;;;7372306;19;20152;-69
2023/06/17 12:35:16;;;;;;;0.00;0.00;;;26.30;99.90;;;;;;7371420;19;20236;-69
2023/06/17 12:37:45;;;;;;;0.00;0.00;;;26.40;99.90;;;;;;7372906;19;20148;-69
2023/06/17 12:40:14;;;;;;;0.00;0.00;;;26.30;99.90;;;;;;7372282;19;20559;-70
2023/06/17 12:42:43;;;;;;;0.00;0.00;;;26.10;99.90;;;;;;7369209;19;20149;-70
2023/06/17 12:45:13;;;;;;;0.00;0.00;;;26.00;99.90;;;;;;7372274;19;20137;-69
2023/06/17 12:47:41;;;;;;;0.00;0.00;;;26.00;99.90;;;;;;7371569;19;20156;-70
2023/06/17 12:50:12;;;;;;;0.00;0.00;;;25.90;99.90;;;;;;7371117;19;20137;-69
2023/06/17 12:52:44;;;;;;;0.00;0.00;;;26.00;99.90;;;;;;7370189;19;20165;-70
2023/06/17 12:55:12;;;;;;;0.00;0.00;;;26.10;99.90;;;;;;7372286;19;20129;-69
2023/06/17 12:57:41;;;;;;;0.00;0.00;;;26.00;99.90;;;;;;7371418;19;20156;-68
2023/06/17 13:00:12;;;;;;;0.00;0.00;;;26.00;99.90;;;;;;7371078;19;20145;-69
2023/06/17 13:02:42;;;;;;;0.00;0.00;;;26.00;99.90;;;;;;7370588;19;20140;-70
2023/06/17 13:05:11;;;;;;;0.00;0.00;;;26.10;99.90;;;;;;7375019;19;20131;-70
2023/06/17 13:07:44;;;;;;;0.00;0.00;;;26.00;99.90;;;;;;7378693;19;20151;-69
2023/06/17 13:10:13;;;;;;;0.00;0.00;;;26.00;99.90;;;;;;7377752;19;20140;-69
2023/06/17 13:12:42;;;;;;;0.00;0.00;;;25.80;99.90;;;;;;7377757;19;20132;-70
2023/06/17 13:15:12;;;;;;;0.00;0.00;;;25.70;99.90;;;;;;7377424;19;20155;-70
2023/06/17 13:17:41;;;;;;;0.00;0.00;;;25.60;99.90;;;;;;7378890;19;20146;-69
2023/06/17 13:20:13;;;;;;;0.00;0.00;;;25.50;99.90;;;;;;7376800;19;20202;-69
2023/06/17 13:22:45;;;;;;;0.00;0.00;;;25.50;99.90;;;;;;7376183;19;20172;-69
2023/06/17 13:25:14;;;;;;;0.00;0.00;;;25.50;99.90;;;;;;7378067;19;20201;-69
2023/06/17 13:27:43;;;;;;;0.00;0.00;;;25.40;99.90;;;;;;7377061;19;20208;-69
2023/06/17 13:30:12;;;;;;;0.00;0.00;;;25.40;99.90;;;;;;7376161;19;20161;-70
2023/06/17 13:32:41;;;;;;;0.00;0.00;;;25.30;99.90;;;;;;7372293;19;20263;-70
2023/06/17 13:35:10;;;;;;;0.00;0.00;;;25.40;99.90;;;;;;7377231;19;20174;-68
2023/06/17 13:37:39;;;;;;;0.00;0.00;;;25.40;99.90;;;;;;7376361;19;20149;-69
2023/06/17 13:40:11;;;;;;;0.00;0.00;;;25.40;99.90;;;;;;7376394;19;20153;-69
2023/06/17 13:42:40;;;;;;;0.00;0.00;;;25.30;99.90;;;;;;7374971;19;20180;-69
2023/06/17 13:45:11;;;;;;;0.00;0.00;;;25.30;99.90;;;;;;7375610;19;20156;-69
2023/06/17 13:47:40;;;;;;;0.00;0.00;;;25.30;99.90;;;;;;7377130;19;20162;-69
2023/06/17 13:50:09;;;;;;;0.00;0.00;;;25.30;99.90;;;;;;7373962;19;20181;-69
2023/06/17 13:52:37;;;;;;;0.00;0.00;;;25.40;99.90;;;;;;7372994;19;20188;-69
2023/06/17 13:55:10;;;;;;;0.00;0.00;;;25.50;99.90;;;;;;7376779;19;20204;-68
2023/06/17 13:57:38;;;;;;;0.00;0.00;;;25.50;99.90;;;;;;7376641;19;20145;-69
2023/06/17 14:00:09;;;;;;;0.00;0.00;;;25.50;99.90;;;;;;7374862;19;20153;-69
2023/06/17 14:02:38;;;;;;;0.00;0.00;;;25.40;99.90;;;;;;7376627;19;20263;-69
2023/06/17 14:05:07;;;;;;;0.00;0.00;;;25.40;99.90;;;;;;7375625;19;20208;-68
2023/06/17 14:07:36;;;;;;;0.00;0.00;;;25.50;99.90;;;;;;7375325;19;20153;-69
2023/06/17 14:10:05;;;;;;;0.00;0.00;;;25.50;99.90;;;;;;7376106;19;20150;-69
2023/06/17 14:12:36;;;;;;;0.00;0.00;;;25.50;99.90;;;;;;7375561;19;20141;-69
2023/06/17 14:15:06;;;;;;;0.00;0.00;;;25.60;99.90;;;;;;7374975;19;20178;-68
2023/06/17 14:17:35;;;;;;;0.00;0.00;;;25.60;99.90;;;;;;7373726;19;20148;-69
2023/06/17 14:20:04;;;;;;;0.00;0.00;;;25.70;99.90;;;;;;7374790;19;20181;-69
2023/06/17 14:22:33;;;;;;;0.00;0.00;;;25.60;99.90;;;;;;7374565;19;20149;-69
2023/06/17 14:25:02;;;;;;;0.00;0.00;;;25.70;99.90;;;;;;7374548;19;20145;-69
2023/06/17 14:27:43;;;;;;;0.00;0.00;;;25.60;99.90;;;;;;7374718;19;20144;-69